createdAt,value
2022-12-02T00:00:04.578Z,97.77
2022-12-02T00:01:28.328Z,97.51
2022-12-02T00:02:33.678Z,97.57
2022-12-02T00:03:37.449Z,97.47
2022-12-02T00:04:39.318Z,97.45
2022-12-02T00:05:41.144Z,97.53
2022-12-02T00:06:42.960Z,97.60
2022-12-02T00:07:54.517Z,97.71
2022-12-02T00:09:26.951Z,97.62
2022-12-02T00:10:32.787Z,97.81
2022-12-02T00:11:34.506Z,98.04
2022-12-02T00:12:36.270Z,98.08
2022-12-02T00:13:43.290Z,97.84
2022-12-02T00:14:45.098Z,97.91
2022-12-02T00:15:51.678Z,97.85
2022-12-02T00:16:54.043Z,97.80
2022-12-02T00:17:55.752Z,97.79
2022-12-02T00:18:57.643Z,97.81
2022-12-02T00:19:59.362Z,97.88
2022-12-02T00:21:01.139Z,97.68
2022-12-02T00:22:02.932Z,97.76
2022-12-02T00:23:05.874Z,97.90
2022-12-02T00:24:07.828Z,97.79
2022-12-02T00:25:09.548Z,97.78
2022-12-02T00:26:11.373Z,97.56
2022-12-02T00:27:13.350Z,97.76
2022-12-02T00:28:16.223Z,97.51
2022-12-02T00:29:18.047Z,97.68
2022-12-02T00:30:19.872Z,97.67
2022-12-02T00:31:21.651Z,97.79
2022-12-02T00:32:24.025Z,97.45
2022-12-02T00:33:25.867Z,97.44
2022-12-02T00:34:27.751Z,97.55
2022-12-02T00:35:38.207Z,97.23
2022-12-02T00:36:40.224Z,96.51
2022-12-02T00:37:42.017Z,96.66
2022-12-02T00:38:44.352Z,96.86
2022-12-02T00:39:46.130Z,96.91
2022-12-02T00:40:48.052Z,97.16
2022-12-02T00:41:49.815Z,96.96
2022-12-02T00:42:52.348Z,97.19
2022-12-02T00:44:12.640Z,97.40
2022-12-02T00:45:34.088Z,97.30
2022-12-02T00:46:37.098Z,97.21
2022-12-02T00:47:39.205Z,97.35
2022-12-02T00:48:41.055Z,97.29
2022-12-02T00:49:42.943Z,97.57
2022-12-02T00:50:44.695Z,97.28
2022-12-02T00:51:46.735Z,97.22
2022-12-02T00:52:48.680Z,97.40
2022-12-02T00:53:50.665Z,97.04
2022-12-02T00:54:52.649Z,97.02
2022-12-02T00:55:54.548Z,97.34
2022-12-02T00:56:56.371Z,97.47
2022-12-02T00:57:58.334Z,97.39
2022-12-02T00:59:01.091Z,97.39
2022-12-02T01:00:05.540Z,97.44
2022-12-02T01:01:07.467Z,97.52
2022-12-02T01:02:10.560Z,97.77
2022-12-02T01:03:12.623Z,97.83
2022-12-02T01:04:14.433Z,97.88
2022-12-02T01:05:16.352Z,98.14
2022-12-02T01:06:18.245Z,98.04
2022-12-02T01:07:22.490Z,98.11
2022-12-02T01:08:27.416Z,97.68
2022-12-02T01:09:29.677Z,97.43
2022-12-02T01:10:31.702Z,97.41
2022-12-02T01:11:33.437Z,96.96
2022-12-02T01:12:35.224Z,97.11
2022-12-02T01:13:37.351Z,97.44
2022-12-02T01:14:39.293Z,97.50
2022-12-02T01:15:41.039Z,97.60
2022-12-02T01:16:42.848Z,97.55
2022-12-02T01:17:44.854Z,97.67
2022-12-02T01:18:46.599Z,97.59
2022-12-02T01:19:49.559Z,97.60
2022-12-02T01:20:51.629Z,98.00
2022-12-02T01:21:53.375Z,97.73
2022-12-02T01:22:55.400Z,97.68
2022-12-02T01:23:57.170Z,97.73
2022-12-02T01:24:58.944Z,98.04
2022-12-02T01:26:00.802Z,98.42
2022-12-02T01:27:02.532Z,98.39
2022-12-02T01:28:04.512Z,98.31
2022-12-02T01:29:08.000Z,98.46
2022-12-02T01:30:10.258Z,98.43
2022-12-02T01:31:12.179Z,98.56
2022-12-02T01:32:14.152Z,98.58
2022-12-02T01:33:16.473Z,98.69
2022-12-02T01:34:18.205Z,98.71
2022-12-02T01:35:22.548Z,98.81
2022-12-02T01:36:24.321Z,99.18
2022-12-02T01:37:29.771Z,98.88
2022-12-02T01:38:36.437Z,99.29
2022-12-02T01:39:40.251Z,99.37
2022-12-02T01:40:42.416Z,99.27
2022-12-02T01:41:44.333Z,99.37
2022-12-02T01:42:48.688Z,99.24
2022-12-02T01:43:50.634Z,98.90
2022-12-02T01:44:53.081Z,98.57
2022-12-02T01:45:55.309Z,98.01
2022-12-02T01:46:58.276Z,97.81
2022-12-02T01:48:02.043Z,97.54
2022-12-02T01:49:04.772Z,97.59
2022-12-02T01:50:10.788Z,97.49
2022-12-02T01:51:15.693Z,97.43
2022-12-02T01:52:18.605Z,97.31
2022-12-02T01:53:21.388Z,97.23
2022-12-02T01:54:23.409Z,97.79
2022-12-02T01:55:27.769Z,97.85
2022-12-02T01:56:29.865Z,98.19
2022-12-02T01:57:32.312Z,98.42
2022-12-02T01:58:35.117Z,98.30
2022-12-02T01:59:37.892Z,98.58
2022-12-02T02:00:40.559Z,98.59
2022-12-02T02:01:44.362Z,98.51
2022-12-02T02:02:46.803Z,98.62
2022-12-02T02:03:48.619Z,98.30
2022-12-02T02:04:51.117Z,98.44
2022-12-02T02:05:54.563Z,98.16
2022-12-02T02:06:56.333Z,97.93
2022-12-02T02:08:05.201Z,98.32
2022-12-02T02:09:07.740Z,97.86
2022-12-02T02:10:10.934Z,97.88
2022-12-02T02:11:12.703Z,97.95
2022-12-02T02:12:14.838Z,97.91
2022-12-02T02:13:18.244Z,97.68
2022-12-02T02:14:20.066Z,97.70
2022-12-02T02:15:23.233Z,97.73
2022-12-02T02:16:25.088Z,97.77
2022-12-02T02:17:28.576Z,97.55
2022-12-02T02:18:30.549Z,97.80
2022-12-02T02:19:32.304Z,97.61
2022-12-02T02:20:39.747Z,97.59
2022-12-02T02:21:48.923Z,97.24
2022-12-02T02:23:01.035Z,97.22
2022-12-02T02:24:05.110Z,97.30
2022-12-02T02:25:19.909Z,97.65
2022-12-02T02:26:23.643Z,97.80
2022-12-02T02:27:25.510Z,97.52
2022-12-02T02:28:28.119Z,97.24
2022-12-02T02:29:30.017Z,96.95
2022-12-02T02:30:34.996Z,97.13
2022-12-02T02:31:37.164Z,97.62
2022-12-02T02:32:39.049Z,97.42
2022-12-02T02:33:41.285Z,97.51
2022-12-02T02:34:43.107Z,97.45
2022-12-02T02:35:47.662Z,97.92
2022-12-02T02:36:49.728Z,97.93
2022-12-02T02:37:55.616Z,97.83
2022-12-02T02:38:58.320Z,97.67
2022-12-02T02:40:00.616Z,97.85
2022-12-02T02:41:04.078Z,97.36
2022-12-02T02:42:06.086Z,97.60
2022-12-02T02:43:09.444Z,97.57
2022-12-02T02:44:11.336Z,97.47
2022-12-02T02:45:13.842Z,97.58
2022-12-02T02:46:16.792Z,97.35
2022-12-02T02:47:19.375Z,97.50
2022-12-02T02:48:23.425Z,97.37
2022-12-02T02:49:26.265Z,97.46
2022-12-02T02:50:28.697Z,97.48
2022-12-02T02:51:30.784Z,97.26
2022-12-02T02:52:34.036Z,97.35
2022-12-02T02:53:36.619Z,97.29
2022-12-02T02:54:39.198Z,97.35
2022-12-02T02:55:41.980Z,97.71
2022-12-02T02:56:43.858Z,98.11
2022-12-02T02:57:46.956Z,98.01
2022-12-02T02:58:48.776Z,98.05
2022-12-02T02:59:56.631Z,97.96
2022-12-02T03:01:14.693Z,98.17
2022-12-02T03:02:17.052Z,97.76
2022-12-02T03:03:23.029Z,97.93
2022-12-02T03:04:26.030Z,97.95
2022-12-02T03:05:28.371Z,98.42
2022-12-02T03:06:33.922Z,98.51
2022-12-02T03:07:36.941Z,98.33
2022-12-02T03:08:43.281Z,98.26
2022-12-02T03:09:47.073Z,98.46
2022-12-02T03:10:51.051Z,98.55
2022-12-02T03:11:56.728Z,98.56
2022-12-02T03:12:59.696Z,98.17
2022-12-02T03:14:03.257Z,98.08
2022-12-02T03:15:07.160Z,98.32
2022-12-02T03:16:14.828Z,98.20
2022-12-02T03:17:17.218Z,98.03
2022-12-02T03:18:19.080Z,98.04
2022-12-02T03:19:21.136Z,98.36
2022-12-02T03:20:24.109Z,98.02
2022-12-02T03:21:27.605Z,98.00
2022-12-02T03:22:29.869Z,98.14
2022-12-02T03:23:33.391Z,98.20
2022-12-02T03:24:35.884Z,98.54
2022-12-02T03:25:37.810Z,98.77
2022-12-02T03:26:41.164Z,98.84
2022-12-02T03:27:43.579Z,98.74
2022-12-02T03:28:48.007Z,98.93
2022-12-02T03:29:51.047Z,98.85
2022-12-02T03:30:53.041Z,98.66
2022-12-02T03:31:56.672Z,98.67
2022-12-02T03:32:59.152Z,98.50
2022-12-02T03:34:01.444Z,98.79
2022-12-02T03:35:05.382Z,98.88
2022-12-02T03:36:09.756Z,98.86
2022-12-02T03:37:11.910Z,99.28
2022-12-02T03:38:13.786Z,99.19
2022-12-02T03:39:16.144Z,98.81
2022-12-02T03:40:18.052Z,98.87
2022-12-02T03:41:21.790Z,98.76
2022-12-02T03:42:24.249Z,99.24
2022-12-02T03:43:26.518Z,98.83
2022-12-02T03:44:28.900Z,99.26
2022-12-02T03:45:32.109Z,99.25
2022-12-02T03:46:34.247Z,99.31
2022-12-02T03:47:36.518Z,99.27
2022-12-02T03:48:40.227Z,99.36
2022-12-02T03:49:44.488Z,99.37
2022-12-02T03:50:46.279Z,99.55
2022-12-02T03:51:49.457Z,99.03
2022-12-02T03:52:51.398Z,99.10
2022-12-02T03:53:54.081Z,98.92
2022-12-02T03:54:57.356Z,98.86
2022-12-02T03:56:05.947Z,98.80
2022-12-02T03:57:09.226Z,98.73
2022-12-02T03:58:11.295Z,98.80
2022-12-02T03:59:21.738Z,98.91
2022-12-02T04:00:23.558Z,99.10
2022-12-02T04:01:25.373Z,99.29
2022-12-02T04:02:27.855Z,99.10
2022-12-02T04:03:29.801Z,99.04
2022-12-02T04:04:31.674Z,99.21
2022-12-02T04:05:33.984Z,99.25
2022-12-02T04:06:35.818Z,98.90
2022-12-02T04:07:37.803Z,98.93
2022-12-02T04:08:40.051Z,99.35
2022-12-02T04:09:42.160Z,99.48
2022-12-02T04:10:43.889Z,99.71
2022-12-02T04:11:45.644Z,99.83
2022-12-02T04:12:47.625Z,99.90
2022-12-02T04:13:49.356Z,99.89
2022-12-02T04:14:51.407Z,99.95
2022-12-02T04:15:53.637Z,99.82
2022-12-02T04:16:55.398Z,99.87
2022-12-02T04:17:57.218Z,99.82
2022-12-02T04:18:59.038Z,99.64
2022-12-02T04:20:00.865Z,99.78
2022-12-02T04:21:02.629Z,99.91
2022-12-02T04:22:04.362Z,99.91
2022-12-02T04:23:06.242Z,99.97
2022-12-02T04:24:08.366Z,99.63
2022-12-02T04:25:10.182Z,99.51
2022-12-02T04:26:11.934Z,99.47
2022-12-02T04:27:13.873Z,99.62
2022-12-02T04:28:15.677Z,99.82
2022-12-02T04:29:17.416Z,99.93
2022-12-02T04:30:19.465Z,99.74
2022-12-02T04:31:21.228Z,99.68
2022-12-02T04:32:23.034Z,99.63
2022-12-02T04:33:24.943Z,99.88
2022-12-02T04:34:26.729Z,99.91
2022-12-02T04:35:28.791Z,99.88
2022-12-02T04:36:31.181Z,99.84
2022-12-02T04:37:32.940Z,99.88
2022-12-02T04:38:34.662Z,99.70
2022-12-02T04:39:36.406Z,99.47
2022-12-02T04:40:38.175Z,99.48
2022-12-02T04:41:39.905Z,99.88
2022-12-02T04:42:41.661Z,99.95
2022-12-02T04:43:43.463Z,99.70
2022-12-02T04:44:45.215Z,99.61
2022-12-02T04:45:47.079Z,99.50
2022-12-02T04:46:49.006Z,99.62
2022-12-02T04:47:50.839Z,99.58
2022-12-02T04:48:52.585Z,99.68
2022-12-02T04:49:54.311Z,99.69
2022-12-02T04:50:56.132Z,99.80
2022-12-02T04:51:57.982Z,99.77
2022-12-02T04:53:00.191Z,99.96
2022-12-02T04:54:01.958Z,99.95
2022-12-02T04:55:03.902Z,100.00
2022-12-02T04:56:06.021Z,100.00
2022-12-02T04:57:08.401Z,100.00
2022-12-02T04:58:10.184Z,99.97
2022-12-02T04:59:11.870Z,99.96
2022-12-02T05:00:14.330Z,99.99
2022-12-02T05:01:16.198Z,100.00
2022-12-02T05:02:18.095Z,100.00
2022-12-02T05:03:19.988Z,100.00
2022-12-02T05:04:21.857Z,100.00
2022-12-02T05:05:23.648Z,100.00
2022-12-02T05:06:25.667Z,99.93
2022-12-02T05:07:27.636Z,100.00
2022-12-02T05:08:29.597Z,100.00
2022-12-02T05:09:31.324Z,99.65
2022-12-02T05:10:33.672Z,99.50
2022-12-02T05:11:36.655Z,99.36
2022-12-02T05:12:38.552Z,99.28
2022-12-02T05:13:40.258Z,99.41
2022-12-02T05:14:42.022Z,99.85
2022-12-02T05:15:43.818Z,99.84
2022-12-02T05:16:45.596Z,99.75
2022-12-02T05:17:47.336Z,99.70
2022-12-02T05:18:49.128Z,99.57
2022-12-02T05:19:50.850Z,99.93
2022-12-02T05:20:52.646Z,99.78
2022-12-02T05:21:54.538Z,99.70
2022-12-02T05:22:56.265Z,99.69
2022-12-02T05:23:58.028Z,99.72
2022-12-02T05:24:59.958Z,99.76
2022-12-02T05:26:01.736Z,99.61
2022-12-02T05:27:03.706Z,99.55
2022-12-02T05:28:05.554Z,99.68
2022-12-02T05:29:08.171Z,99.67
2022-12-02T05:30:12.475Z,99.14
2022-12-02T05:31:14.776Z,99.14
2022-12-02T05:32:16.935Z,99.17
2022-12-02T05:33:18.730Z,99.27
2022-12-02T05:34:20.664Z,99.38
2022-12-02T05:35:22.435Z,99.60
2022-12-02T05:36:24.193Z,99.39
2022-12-02T05:37:25.938Z,99.39
2022-12-02T05:38:28.030Z,99.22
2022-12-02T05:39:29.961Z,99.43
2022-12-02T05:40:32.754Z,99.61
2022-12-02T05:41:34.917Z,99.84
2022-12-02T05:42:36.685Z,99.84
2022-12-02T05:43:41.466Z,99.58
2022-12-02T05:44:43.814Z,99.97
2022-12-02T05:45:46.477Z,100.00
2022-12-02T05:46:49.411Z,100.00
2022-12-02T05:47:54.681Z,100.00
2022-12-02T05:48:57.820Z,100.00
2022-12-02T05:50:01.275Z,100.00
2022-12-02T05:51:06.214Z,100.00
2022-12-02T05:52:19.076Z,100.00
2022-12-02T05:53:27.201Z,100.00
2022-12-02T05:54:29.985Z,100.00
2022-12-02T05:55:31.721Z,100.00
2022-12-02T05:56:33.511Z,100.00
2022-12-02T05:57:35.250Z,100.00
2022-12-02T05:58:40.523Z,100.00
2022-12-02T05:59:42.304Z,100.00
2022-12-02T06:00:44.631Z,99.95
2022-12-02T06:01:50.626Z,100.00
2022-12-02T06:02:58.648Z,100.00
2022-12-02T06:04:01.240Z,100.00
2022-12-02T06:05:14.679Z,100.00
2022-12-02T06:06:16.501Z,100.00
2022-12-02T06:07:18.571Z,99.96
2022-12-02T06:08:24.034Z,99.97
2022-12-02T06:09:30.716Z,100.00
2022-12-02T06:10:33.171Z,100.00
2022-12-02T06:11:38.830Z,100.00
2022-12-02T06:12:40.781Z,100.00
2022-12-02T06:13:43.826Z,100.00
2022-12-02T06:14:52.952Z,100.00
2022-12-02T06:15:55.730Z,100.00
2022-12-02T06:17:02.028Z,100.00
2022-12-02T06:18:15.447Z,100.00
2022-12-02T06:19:35.797Z,100.00
2022-12-02T06:20:39.273Z,100.00
2022-12-02T06:21:41.329Z,99.99
2022-12-02T06:22:43.231Z,100.00
2022-12-02T06:23:48.387Z,100.00
2022-12-02T06:24:51.325Z,100.00
2022-12-02T06:25:55.140Z,99.88
2022-12-02T06:27:03.638Z,99.86
2022-12-02T06:28:26.309Z,99.97
2022-12-02T06:29:31.709Z,99.83
2022-12-02T06:30:34.417Z,99.92
2022-12-02T06:31:42.723Z,99.99
2022-12-02T06:32:53.821Z,100.00
2022-12-02T06:33:59.978Z,100.00
2022-12-02T06:35:16.432Z,100.00
2022-12-02T06:36:25.217Z,100.00
2022-12-02T06:37:31.089Z,99.97
2022-12-02T06:38:43.828Z,99.94
2022-12-02T06:40:26.501Z,99.99
2022-12-02T06:41:21.402Z,100.00
2022-12-02T06:42:36.368Z,100.00
2022-12-02T06:43:38.120Z,100.00
2022-12-02T06:44:58.761Z,100.00
2022-12-02T06:46:00.685Z,100.00
2022-12-02T06:47:35.096Z,100.00
2022-12-02T06:48:37.344Z,100.00
2022-12-02T06:49:40.193Z,100.00
2022-12-02T06:50:47.258Z,100.00
2022-12-02T06:52:00.776Z,100.00
2022-12-02T06:53:24.444Z,100.00
2022-12-02T06:54:32.174Z,100.00
2022-12-02T06:55:36.620Z,99.97
2022-12-02T06:56:43.212Z,100.00
2022-12-02T06:57:44.916Z,100.00
2022-12-02T06:58:51.219Z,100.00
2022-12-02T06:59:53.025Z,100.00
2022-12-02T07:01:13.028Z,100.00
2022-12-02T07:02:27.660Z,100.00
2022-12-02T07:03:33.018Z,100.00
2022-12-02T07:04:47.840Z,100.00
2022-12-02T07:05:54.042Z,100.00
2022-12-02T07:07:12.729Z,100.00
2022-12-02T07:08:14.528Z,100.00
2022-12-02T07:09:20.329Z,100.00
2022-12-02T07:10:29.977Z,100.00
2022-12-02T07:11:51.845Z,100.00
2022-12-02T07:12:57.633Z,100.00
2022-12-02T07:13:59.362Z,100.00
2022-12-02T07:15:34.085Z,100.00
2022-12-02T07:16:37.060Z,100.00
2022-12-02T07:17:41.791Z,99.98
2022-12-02T07:18:43.544Z,100.00
2022-12-02T07:19:49.190Z,100.00
2022-12-02T07:20:51.041Z,100.00
2022-12-02T07:21:53.865Z,100.00
2022-12-02T07:23:01.797Z,100.00
2022-12-02T07:24:03.721Z,100.00
2022-12-02T07:25:26.945Z,100.00
2022-12-02T07:26:28.923Z,100.00
2022-12-02T07:27:36.010Z,100.00
2022-12-02T07:28:44.604Z,100.00
2022-12-02T07:29:46.487Z,100.00
2022-12-02T07:30:57.154Z,100.00
2022-12-02T07:31:59.014Z,100.00
2022-12-02T07:33:01.512Z,100.00
2022-12-02T07:34:03.232Z,100.00
2022-12-02T07:35:05.529Z,99.94
2022-12-02T07:36:07.538Z,100.00
2022-12-02T07:37:09.327Z,100.00
2022-12-02T07:38:11.183Z,100.00
2022-12-02T07:39:13.179Z,100.00
2022-12-02T07:40:18.433Z,100.00
2022-12-02T07:41:20.509Z,100.00
2022-12-02T07:42:22.267Z,100.00
2022-12-02T07:43:24.095Z,100.00
2022-12-02T07:44:25.905Z,100.00
2022-12-02T07:45:27.697Z,100.00
2022-12-02T07:46:29.551Z,100.00
2022-12-02T07:47:32.233Z,100.00
2022-12-02T07:48:34.030Z,100.00
2022-12-02T07:49:36.141Z,100.00
2022-12-02T07:50:39.246Z,100.00
2022-12-02T07:51:41.286Z,100.00
2022-12-02T07:52:43.086Z,100.00
2022-12-02T07:53:44.971Z,100.00
2022-12-02T07:54:46.707Z,100.00
2022-12-02T07:55:48.459Z,100.00
2022-12-02T07:56:50.272Z,100.00
2022-12-02T07:57:52.100Z,100.00
2022-12-02T08:00:16.340Z,100.00
2022-12-02T08:01:19.883Z,100.00
2022-12-02T08:02:22.848Z,100.00
2022-12-02T08:03:24.746Z,100.00
2022-12-02T08:04:27.788Z,100.00
2022-12-02T08:05:29.810Z,100.00
2022-12-02T08:06:37.392Z,100.00
2022-12-02T08:07:42.638Z,100.00
2022-12-02T08:08:45.583Z,100.00
2022-12-02T08:09:47.366Z,100.00
2022-12-02T08:10:49.121Z,100.00
2022-12-02T08:11:50.949Z,100.00
2022-12-02T08:12:52.798Z,100.00
2022-12-02T08:13:54.652Z,100.00
2022-12-02T08:14:56.420Z,100.00
2022-12-02T08:15:58.136Z,100.00
2022-12-02T08:16:59.975Z,100.00
2022-12-02T08:18:01.722Z,100.00
2022-12-02T08:19:03.921Z,100.00
2022-12-02T08:20:08.986Z,100.00
2022-12-02T08:21:11.220Z,100.00
2022-12-02T08:22:12.983Z,100.00
2022-12-02T08:23:14.715Z,100.00
2022-12-02T08:24:16.536Z,100.00
2022-12-02T08:25:18.370Z,100.00
2022-12-02T08:26:20.163Z,100.00
2022-12-02T08:27:25.360Z,100.00
2022-12-02T08:28:27.072Z,100.00
2022-12-02T08:29:29.439Z,100.00
2022-12-02T08:30:31.327Z,100.00
2022-12-02T08:31:33.117Z,100.00
2022-12-02T08:32:35.471Z,100.00
2022-12-02T08:33:37.274Z,100.00
2022-12-02T08:34:39.092Z,100.00
2022-12-02T08:35:40.796Z,100.00
2022-12-02T08:36:42.648Z,100.00
2022-12-02T08:37:44.438Z,100.00
2022-12-02T08:38:46.315Z,100.00
2022-12-02T08:39:48.121Z,100.00
2022-12-02T08:40:49.895Z,100.00
2022-12-02T08:41:51.698Z,100.00
2022-12-02T08:42:53.460Z,100.00
2022-12-02T08:43:55.278Z,100.00
2022-12-02T08:44:57.602Z,100.00
2022-12-02T08:45:59.448Z,100.00
2022-12-02T08:47:01.318Z,100.00
2022-12-02T08:48:03.177Z,100.00
2022-12-02T08:49:06.333Z,100.00
2022-12-02T08:50:09.554Z,100.00
2022-12-02T08:51:11.313Z,100.00
2022-12-02T08:52:13.442Z,100.00
2022-12-02T08:53:15.348Z,100.00
2022-12-02T08:54:17.140Z,100.00
2022-12-02T08:55:19.253Z,100.00
2022-12-02T08:56:21.081Z,100.00
2022-12-02T08:57:22.818Z,100.00
2022-12-02T08:58:24.612Z,100.00
2022-12-02T08:59:27.720Z,100.00
2022-12-02T09:00:33.030Z,100.00
2022-12-02T09:01:37.846Z,100.00
2022-12-02T09:02:39.691Z,100.00
2022-12-02T09:03:58.925Z,100.00
2022-12-02T09:05:00.667Z,100.00
2022-12-02T09:06:03.027Z,100.00
2022-12-02T09:07:04.750Z,100.00
2022-12-02T09:08:07.046Z,100.00
2022-12-02T09:09:08.866Z,100.00
2022-12-02T09:10:13.732Z,100.00
2022-12-02T09:11:15.635Z,100.00
2022-12-02T09:12:17.548Z,100.00
2022-12-02T09:13:19.343Z,100.00
2022-12-02T09:14:21.132Z,100.00
2022-12-02T09:15:23.208Z,100.00
2022-12-02T09:16:25.097Z,100.00
2022-12-02T09:17:27.167Z,100.00
2022-12-02T09:18:28.910Z,100.00
2022-12-02T09:19:30.680Z,100.00
2022-12-02T09:20:32.482Z,100.00
2022-12-02T09:21:34.303Z,100.00
2022-12-02T09:22:36.047Z,100.00
2022-12-02T09:23:37.761Z,100.00
2022-12-02T09:24:40.374Z,100.00
2022-12-02T09:25:42.174Z,100.00
2022-12-02T09:26:43.904Z,100.00
2022-12-02T09:27:45.664Z,99.94
2022-12-02T09:28:47.666Z,99.94
2022-12-02T09:29:49.463Z,99.92
2022-12-02T09:30:52.238Z,99.81
2022-12-02T09:31:54.124Z,99.82
2022-12-02T09:32:55.855Z,99.70
2022-12-02T09:33:57.621Z,99.59
2022-12-02T09:34:59.406Z,99.44
2022-12-02T09:36:01.299Z,99.32
2022-12-02T09:37:03.400Z,99.64
2022-12-02T09:38:05.492Z,99.47
2022-12-02T09:39:07.379Z,99.56
2022-12-02T09:40:10.486Z,99.44
2022-12-02T09:41:12.413Z,99.47
2022-12-02T09:42:15.799Z,99.44
2022-12-02T09:43:17.767Z,99.11
2022-12-02T09:44:19.647Z,99.03
2022-12-02T09:45:21.508Z,98.93
2022-12-02T09:46:25.160Z,98.66
2022-12-02T09:47:30.125Z,98.47
2022-12-02T09:48:32.574Z,98.16
2022-12-02T09:49:35.422Z,98.33
2022-12-02T09:50:39.576Z,98.18
2022-12-02T09:51:41.550Z,98.24
2022-12-02T09:52:45.191Z,98.44
2022-12-02T09:53:47.746Z,98.57
2022-12-02T09:54:49.716Z,98.46
2022-12-02T09:55:51.601Z,98.28
2022-12-02T09:56:54.089Z,98.12
2022-12-02T09:57:57.371Z,98.14
2022-12-02T09:58:59.148Z,97.90
2022-12-02T10:00:06.196Z,97.82
2022-12-02T10:01:13.326Z,97.94
2022-12-02T10:02:27.371Z,98.15
2022-12-02T10:03:29.620Z,97.84
2022-12-02T10:04:31.830Z,98.03
2022-12-02T10:05:35.880Z,98.11
2022-12-02T10:06:37.619Z,98.24
2022-12-02T10:07:39.499Z,97.83
2022-12-02T10:08:41.355Z,97.77
2022-12-02T10:09:43.195Z,97.95
2022-12-02T10:10:46.000Z,97.91
2022-12-02T10:11:47.996Z,98.03
2022-12-02T10:12:50.457Z,98.11
2022-12-02T10:13:52.382Z,97.73
2022-12-02T10:14:55.099Z,98.05
2022-12-02T10:15:56.961Z,98.06
2022-12-02T10:16:59.331Z,98.29
2022-12-02T10:18:17.350Z,97.87
2022-12-02T10:19:20.405Z,97.81
2022-12-02T10:20:26.603Z,97.96
2022-12-02T10:21:28.447Z,97.66
2022-12-02T10:22:30.168Z,97.76
2022-12-02T10:23:37.796Z,97.47
2022-12-02T10:24:41.221Z,97.54
2022-12-02T10:25:52.880Z,97.65
2022-12-02T10:26:54.575Z,97.46
2022-12-02T10:27:56.418Z,97.39
2022-12-02T10:29:02.850Z,97.21
2022-12-02T10:30:22.443Z,97.14
2022-12-02T10:31:24.235Z,97.04
2022-12-02T10:32:29.679Z,97.01
2022-12-02T10:33:34.857Z,96.69
2022-12-02T10:34:36.714Z,96.49
2022-12-02T10:35:50.588Z,97.09
2022-12-02T10:36:53.567Z,96.88
2022-12-02T10:37:55.566Z,96.83
2022-12-02T10:39:23.287Z,96.99
2022-12-02T10:40:25.754Z,96.85
2022-12-02T10:41:28.973Z,96.92
2022-12-02T10:42:30.883Z,96.70
2022-12-02T10:43:33.915Z,96.78
2022-12-02T10:44:40.553Z,96.86
2022-12-02T10:45:57.455Z,96.66
2022-12-02T10:47:24.048Z,96.35
2022-12-02T10:48:27.838Z,96.26
2022-12-02T10:49:36.760Z,95.98
2022-12-02T10:50:39.686Z,95.99
2022-12-02T10:51:41.585Z,96.45
2022-12-02T10:52:53.733Z,96.39
2022-12-02T10:53:58.929Z,96.17
2022-12-02T10:55:03.828Z,96.02
2022-12-02T10:56:05.962Z,96.16
2022-12-02T10:57:16.504Z,95.79
2022-12-02T10:58:27.238Z,95.66
2022-12-02T10:59:32.363Z,95.93
2022-12-02T11:00:35.630Z,96.21
2022-12-02T11:01:41.057Z,96.09
2022-12-02T11:02:49.054Z,95.99
2022-12-02T11:03:50.924Z,95.82
2022-12-02T11:04:53.621Z,95.53
2022-12-02T11:05:57.506Z,95.94
2022-12-02T11:06:59.366Z,95.89
2022-12-02T11:08:05.035Z,95.97
2022-12-02T11:09:38.598Z,95.90
2022-12-02T11:10:42.224Z,95.48
2022-12-02T11:11:44.423Z,95.80
2022-12-02T11:12:49.197Z,95.98
2022-12-02T11:14:02.110Z,95.88
2022-12-02T11:15:43.623Z,95.91
2022-12-02T11:16:59.219Z,95.40
2022-12-02T11:18:01.981Z,95.27
2022-12-02T11:19:22.875Z,94.96
2022-12-02T11:20:37.509Z,95.02
2022-12-02T11:21:42.176Z,94.96
2022-12-02T11:23:06.538Z,95.27
2022-12-02T11:24:23.354Z,95.30
2022-12-02T11:25:43.472Z,95.08
2022-12-02T11:27:00.377Z,95.24
2022-12-02T11:28:17.535Z,95.51
2022-12-02T11:29:19.363Z,95.65
2022-12-02T11:30:22.664Z,95.61
2022-12-02T11:31:26.247Z,96.04
2022-12-02T11:32:28.210Z,95.80
2022-12-02T11:33:53.042Z,95.93
2022-12-02T11:35:17.075Z,95.75
2022-12-02T11:36:29.594Z,95.82
2022-12-02T11:37:33.574Z,95.91
2022-12-02T11:39:01.471Z,95.94
2022-12-02T11:40:13.184Z,95.40
2022-12-02T11:41:16.434Z,95.52
2022-12-02T11:42:27.054Z,95.38
2022-12-02T11:44:09.599Z,95.23
2022-12-02T11:45:17.256Z,95.11
2022-12-02T11:46:38.689Z,94.97
2022-12-02T11:47:42.825Z,94.98
2022-12-02T11:48:48.506Z,95.02
2022-12-02T11:49:50.327Z,95.49
2022-12-02T11:50:52.914Z,95.16
2022-12-02T11:52:18.189Z,95.26
2022-12-02T11:53:25.191Z,95.57
2022-12-02T11:54:27.797Z,95.20
2022-12-02T11:55:41.460Z,95.25
2022-12-02T11:56:46.445Z,95.25
2022-12-02T11:57:54.388Z,95.15
2022-12-02T11:58:57.332Z,95.27
2022-12-02T11:59:59.218Z,95.64
2022-12-02T12:01:13.098Z,95.34
2022-12-02T12:02:18.127Z,95.12
2022-12-02T12:03:21.349Z,95.47
2022-12-02T12:04:29.117Z,95.41
2022-12-02T12:05:30.997Z,95.54
2022-12-02T12:06:34.941Z,95.34
2022-12-02T12:07:50.809Z,95.57
2022-12-02T12:08:56.798Z,95.83
2022-12-02T12:09:59.814Z,95.74
2022-12-02T12:11:29.140Z,96.12
2022-12-02T12:12:30.868Z,95.45
2022-12-02T12:13:37.016Z,95.85
2022-12-02T12:14:57.655Z,96.14
2022-12-02T12:16:01.804Z,95.72
2022-12-02T12:17:29.219Z,95.54
2022-12-02T12:18:39.247Z,95.02
2022-12-02T12:19:41.065Z,94.82
2022-12-02T12:20:43.813Z,94.91
2022-12-02T12:21:54.116Z,95.17
2022-12-02T12:23:28.843Z,94.84
2022-12-02T12:24:34.489Z,95.14
2022-12-02T12:25:44.470Z,95.00
2022-12-02T12:26:47.431Z,95.52
2022-12-02T12:27:49.309Z,95.48
2022-12-02T12:28:51.119Z,95.55
2022-12-02T12:29:52.878Z,95.56
2022-12-02T12:30:55.082Z,95.31
2022-12-02T12:31:56.907Z,95.33
2022-12-02T12:32:58.747Z,95.32
2022-12-02T12:34:00.598Z,95.79
2022-12-02T12:35:02.347Z,95.54
2022-12-02T12:36:04.381Z,95.31
2022-12-02T12:37:06.148Z,95.08
2022-12-02T12:38:07.898Z,94.88
2022-12-02T12:39:10.392Z,95.08
2022-12-02T12:40:13.390Z,94.95
2022-12-02T12:41:25.865Z,94.76
2022-12-02T12:42:36.964Z,94.82
2022-12-02T12:43:38.785Z,94.73
2022-12-02T12:44:40.552Z,94.61
2022-12-02T12:45:42.411Z,94.88
2022-12-02T12:46:44.421Z,94.93
2022-12-02T12:47:46.201Z,95.12
2022-12-02T12:48:47.983Z,94.75
2022-12-02T12:49:49.865Z,94.85
2022-12-02T12:50:51.686Z,95.20
2022-12-02T12:51:53.554Z,95.53
2022-12-02T12:52:55.350Z,95.81
2022-12-02T12:53:57.114Z,95.21
2022-12-02T12:54:58.895Z,95.35
2022-12-02T12:56:01.317Z,95.46
2022-12-02T12:57:03.401Z,95.64
2022-12-02T12:58:05.127Z,95.36
2022-12-02T12:59:06.863Z,95.47
2022-12-02T13:00:09.387Z,95.09
2022-12-02T13:01:11.520Z,95.47
2022-12-02T13:02:13.453Z,95.21
2022-12-02T13:03:15.693Z,95.47
2022-12-02T13:04:17.564Z,95.59
2022-12-02T13:05:19.387Z,96.03
2022-12-02T13:06:21.901Z,95.79
2022-12-02T13:07:23.735Z,95.93
2022-12-02T13:08:26.040Z,96.03
2022-12-02T13:09:27.944Z,95.92
2022-12-02T13:10:29.793Z,96.08
2022-12-02T13:11:31.608Z,95.97
2022-12-02T13:12:33.413Z,95.63
2022-12-02T13:13:35.255Z,95.73
2022-12-02T13:14:36.973Z,96.04
2022-12-02T13:15:38.741Z,96.06
2022-12-02T13:16:40.672Z,96.11
2022-12-02T13:17:48.524Z,96.39
2022-12-02T13:18:50.928Z,96.50
2022-12-02T13:19:53.100Z,96.59
2022-12-02T13:20:54.904Z,96.75
2022-12-02T13:21:56.781Z,97.10
2022-12-02T13:22:59.040Z,97.25
2022-12-02T13:24:00.824Z,97.19
2022-12-02T13:25:03.609Z,97.21
2022-12-02T13:26:05.535Z,97.36
2022-12-02T13:27:07.337Z,97.85
2022-12-02T13:28:09.606Z,97.89
2022-12-02T13:29:11.564Z,98.02
2022-12-02T13:30:16.295Z,98.10
2022-12-02T13:31:20.587Z,98.00
2022-12-02T13:32:22.637Z,98.29
2022-12-02T13:33:24.474Z,98.49
2022-12-02T13:34:26.275Z,98.65
2022-12-02T13:35:28.647Z,98.38
2022-12-02T13:36:30.560Z,98.62
2022-12-02T13:37:32.421Z,98.57
2022-12-02T13:38:34.306Z,98.62
2022-12-02T13:39:36.153Z,98.43
2022-12-02T13:40:38.026Z,98.59
2022-12-02T13:41:40.095Z,98.52
2022-12-02T13:42:42.528Z,98.66
2022-12-02T13:43:44.505Z,98.60